x

New London Ledge Ct - Ledge Light Weather Station (ldlc3) Weather Station

1:45 - Fri 21st Jul 2017 All times are EDT. -4 hours from GMT.

  • Wind
    15mph, 16mph gusts
  • Ar Temp 73°f
  • Sea Pressure 1010.5mb
  • New London Ledge Ct - Ledge Light Weather Station
  • New London Ledge Ct - Ledge Light Weather Station

More Historic Weather Station data

Upgrade to MSW Pro to gain access to the past 30 days of data for over 8000 Wavebouys and Weather Stations around the globe.

Join Pro

Comparision Forecast

View Surf forecast
   
Sex 07/21 1:45 15 16 mph 1010.5mb 73f
1:30 17 18 mph 1010.5mb 73f
1:15 16 18 mph 1010.8mb 73f
1:00 16 18 mph 1010.9mb 74f
12:45 16 18 mph 1010.8mb 73f
12:30 15 16 mph 1010.8mb 73f
12:15 15 18 mph 1010.8mb 73f
12:00 16 17 mph 1011.2mb 73f
11:45 18 21 mph 1011.3mb 73f
11:30 18 22 mph 1011.2mb 73f
11:15 17 20 mph 1011.4mb 74f
11:00 10 16 mph 1011.6mb 80f
10:45 15 17 mph 1011.5mb 81f
10:30 11 15 mph 1011.6mb 81f
10:15 14 17 mph 1011.6mb 81f
10:00 16 23 mph 1011.6mb 81f
9:45 10 14 mph 1011.6mb 76f
9:30 14 16 mph 1011.6mb 73f
9:15 13 15 mph 1011.6mb 75f
9:00 16 16 mph 1011.7mb 73f
8:45 14 15 mph 1011.6mb 72f
8:30 11 13 mph 1011.6mb 72f
8:15 11 13 mph 1011.4mb 71f
8:00 8 9 mph 1011.4mb 73f
7:45 7 9 mph 1011.4mb 73f
7:30 5 5 mph 1011.4mb 75f
7:15 3 5 mph 1011.2mb 74f
7:00 3 3 mph 1011mb 74f
6:45 6 7 mph 1010.8mb 73f
6:30 5 6 mph 1010.8mb 72f
6:15 5 6 mph 1010.9mb 71f
6:00 6 7 mph 1010.8mb 71f
5:45 5 7 mph 1010.6mb 72f
5:30 6 6 mph 1010.4mb 73f
5:15 5 6 mph 1010.4mb 73f
5:00 2 3 mph 1010.4mb 73f
4:45 6 7 mph 1010.2mb 73f
4:30 5 7 mph 1010.2mb 74f
4:15 5 6 mph 1010.2mb 74f
4:00 10 13 mph 1010.1mb 75f
3:45 11 14 mph 1009.9mb 75f
3:30 11 14 mph 1010mb 75f
3:15 14 15 mph 1009.9mb 76f
3:00 13 15 mph 1010.1mb 76f
2:45 11 14 mph 1010.2mb 76f
2:30 10 11 mph 1010.3mb 76f
2:15 10 11 mph 1010.3mb 76f
2:00 10 11 mph 1010.3mb 75f
1:45 10 11 mph 1010.3mb 77f
1:30 10 11 mph 1010.3mb 77f
1:15 10 11 mph 1010.3mb 76f
1:00 9 10 mph 1010.3mb 75f
Qui 07/20 7:45 8 11 mph 1010.3mb 73f
7:15 10 11 mph 1010.5mb 74f
7:00 15 16 mph 1010.4mb 74f
6:45 15 16 mph 1010.4mb 74f
6:30 16 17 mph 1010.3mb 75f
6:15 13 15 mph 1010.4mb 75f
6:00 16 16 mph 1010.4mb 77f
5:45 13 15 mph 1010.7mb 76f
5:30 9 11 mph 1010.9mb 78f
5:15 6 8 mph 1010.9mb 79f
5:00 3 6 mph 1011.1mb 79f
4:45 5 6 mph 1011.1mb 81f
4:35 3 7 mph 1011.3mb 80f
4:15 6 8 mph 1011.4mb 81f
4:00 3 3 mph 1011.6mb 81f
3:45 5 6 mph 1011.6mb 80f
3:30 6 7 mph 1011.8mb 80f
3:15 5 7 mph 1011.8mb 81f
3:00 3 3 mph 1012mb 83f
2:45 3 5 mph 1012.1mb 80f
2:30 3 5 mph 1012.4mb 82f
2:15 6 7 mph 1012.5mb 80f
2:00 7 8 mph 1012.7mb 80f
1:45 7 8 mph 1012.7mb 81f
1:30 7 8 mph 1012.9mb 81f
1:15 9 10 mph 1013.2mb 80f
1:00 10 11 mph 1013.3mb 79f
12:45 10 11 mph 1013.6mb 78f
12:30 10 11 mph 1013.7mb 78f
12:15 10 11 mph 1014mb 78f
11:30 7 8 mph 1014.1mb 76f
11:15 8 9 mph 1014.3mb 76f
11:00 9 10 mph 1014.4mb 76f
10:45 9 10 mph 1014.4mb 74f
10:30 9 10 mph 1014.6mb 74f
10:15 8 8 mph 1014.5mb 74f
10:00 9 9 mph 1014.3mb 75f
9:45 8 10 mph 1014.4mb 78f
9:30 8 9 mph 1014.5mb 76f
9:15 8 9 mph 1014.7mb 76f
9:00 6 6 mph 1014.6mb 76f
8:45 5 6 mph 1014.7mb 76f
8:30 5 6 mph 1014.7mb 75f
8:15 2 3 mph 1014.7mb 76f
8:00 2 2 mph 1014.7mb 74f
7:45 3 5 mph 1014.7mb 74f
7:30 5 6 mph 1014.6mb 72f
7:15 5 6 mph 1014.4mb 74f
7:00 2 6 mph 1014.4mb 74f
6:45  -  1 mph 1014.2mb 78f
6:30  -  1 mph 1014.1mb 76f
6:15 3 3 mph 1014mb 74f
6:00 3 3 mph 1013.8mb 72f
5:45 3 5 mph 1013.9mb 72f
5:30 3 3 mph 1013.9mb 73f
5:15 3 5 mph 1013.8mb 72f
5:00 2 3 mph 1014mb 73f
4:45 2 2 mph 1013.8mb 73f
4:30 5 5 mph 1013.8mb 73f
4:15 2 3 mph 1013.7mb 73f
4:00 1 2 mph 1013.9mb 73f
3:45 6 7 mph 1014.1mb 73f
3:30 5 6 mph 1014mb 73f
3:15 6 6 mph 1014.2mb 73f
3:00 3 3 mph 1014.2mb 73f
2:45 2 3 mph 1014.3mb 73f
2:30 3 3 mph 1014.2mb 74f
2:15 2 2 mph 1014.1mb 73f
2:00 2 3 mph 1014.2mb 73f
1:45 3 5 mph 1014.2mb 74f
1:30 5 5 mph 1014.2mb 74f
1:15 5 5 mph 1014.6mb 75f
1:00 3 5 mph 1014.6mb 76f
Qua 07/19 7:45 13 16 mph 1014mb 73f
7:30 20 21 mph 1013.6mb 75f
7:15 20 21 mph 1013.6mb 75f
7:00 17 20 mph 1013.4mb 74f
6:45 17 18 mph 1013.3mb 74f
6:30 18 20 mph 1013.3mb 75f
6:15 14 16 mph 1013.4mb 75f
6:00 16 17 mph 1013.4mb 76f
5:45 15 16 mph 1013.6mb 76f
5:30 15 16 mph 1013.6mb 76f
5:15 14 15 mph 1013.6mb 76f
5:00 14 15 mph 1013.7mb 76f
4:45 14 16 mph 1013.9mb 76f
4:30 15 16 mph 1013.9mb 77f
4:15 16 17 mph 1014mb 78f
4:00 11 14 mph 1014.3mb 77f
3:45 9 11 mph 1014.4mb 79f
3:30 7 7 mph 1014.6mb 80f
3:15 7 8 mph 1014.6mb 80f
3:00 3 5 mph 1014.8mb 81f
2:45 5 6 mph 1014.8mb 81f
2:30 5 6 mph 1014.8mb 82f
2:15 5 6 mph 1014.8mb 81f
2:00 7 8 mph 1015.1mb 81f
1:45 6 7 mph 1015.3mb 81f
1:30 7 9 mph 1015.6mb 81f
1:15 7 8 mph 1015.7mb 80f
1:00 7 7 mph 1015.9mb 81f
12:45 7 8 mph 1015.9mb 80f
12:30 7 8 mph 1016mb 78f
12:15 7 7 mph 1016.3mb 78f
12:00 7 7 mph 1016.5mb 78f
11:45 7 9 mph 1016.5mb 78f
11:30 7 8 mph 1016.6mb 79f
11:15 8 9 mph 1016.7mb 78f
11:00 6 7 mph 1016.8mb 77f
10:45 5 6 mph 1016.9mb 76f
10:30 3 5 mph 1017mb 77f
10:15 3 5 mph 1017mb 77f
10:00 3 5 mph 1017mb 76f
9:45 5 6 mph 1016.9mb 75f
9:30 5 5 mph 1017.1mb 76f
9:15 3 5 mph 1017.1mb 75f
9:00 2 3 mph 1017.2mb 74f
8:45 3 5 mph 1017.5mb 74f
8:30 5 6 mph 1017.4mb 73f
8:15 5 5 mph 1017.3mb 73f
8:00 5 7 mph 1017.2mb 72f
7:45 2 5 mph 1017.2mb 72f
7:30 2 2 mph 1017mb 71f
7:15 1 2 mph 1017.1mb 71f
7:00  -  1 mph 1017.1mb 71f
6:45 2 2 mph 1016.9mb 70f
6:30 3 3 mph 1017mb 70f
6:15 2 3 mph 1016.9mb 70f
6:00 1 2 mph 1017mb 70f
5:45 1 2 mph 1017mb 70f
5:30  -  2 mph 1017.2mb 69f
5:15 5 6 mph 1017.1mb 70f
5:00 6 7 mph 1017.2mb 70f
4:45 6 6 mph 1017.1mb 70f
4:30 6 7 mph 1017.2mb 71f
4:15 6 6 mph 1017mb 71f
4:00 3 5 mph 1017.1mb 71f
3:45 3 5 mph 1017.1mb 70f
3:30 2 2 mph 1017.3mb 70f
3:15 2 3 mph 1017.4mb 71f
3:00 6 7 mph 1017.4mb 71f
2:45 8 8 mph 1017.4mb 72f
2:30 10 10 mph 1017.3mb 72f
2:15 9 10 mph 1017.4mb 72f
2:00 10 10 mph 1017.5mb 71f
1:45 10 10 mph 1017.5mb 71f
1:30 7 8 mph 1017.7mb 71f
1:15 6 7 mph 1018mb 70f
1:00 3 5 mph 1018.1mb 71f
Ter 07/18 7:45 8 9 mph 1017.7mb 73f
7:30 9 10 mph 1017.8mb 73f
7:15 10 11 mph 1017.7mb 73f
7:00 9 9 mph 1017.7mb 72f
6:45 9 9 mph 1017.7mb 72f
6:30 13 14 mph 1017.5mb 74f
6:15 15 16 mph 1017.2mb 73f
6:00 15 16 mph 1017.2mb 72f
5:45 15 16 mph 1017.2mb 72f
5:30 15 16 mph 1017.2mb 72f
5:15 14 15 mph 1017.3mb 73f
5:00 13 15 mph 1017.5mb 73f
4:45 15 16 mph 1017.2mb 73f
4:30 15 16 mph 1017.2mb 73f
4:15 14 15 mph 1017.2mb 73f
4:00 15 17 mph 1017.4mb 74f
3:45 15 15 mph 1017.5mb 74f
3:30 13 14 mph 1017.6mb 74f
3:15 11 11 mph 1017.9mb 74f
3:00 9 10 mph 1018.2mb 74f
2:45 11 11 mph 1018mb 74f
2:30 9 10 mph 1018mb 75f
2:15 7 8 mph 1018.1mb 76f
2:00 6 7 mph 1018.3mb 76f
1:45 7 7 mph 1018.6mb 75f
1:30 7 7 mph 1018.7mb 74f
1:15 6 6 mph 1018.8mb 75f
1:00 6 7 mph 1019.1mb 75f
12:45 5 5 mph 1019.1mb 74f
12:30 5 6 mph 1019.4mb 73f
12:15 5 6 mph 1019.3mb 75f
12:00 6 6 mph 1019.3mb 73f
11:45 3 5 mph 1019.4mb 74f
11:30 2 5 mph 1019.4mb 74f
11:15 2 3 mph 1019.4mb 73f
11:00 3 5 mph 1019.5mb 72f
10:45 3 5 mph 1019.7mb 73f
10:30 5 5 mph 1019.7mb 72f
10:15 3 5 mph 1019.7mb 71f
10:00 5 6 mph 1019.6mb 71f
9:45 3 5 mph 1019.7mb 71f
9:30 3 5 mph 1019.8mb 71f
9:15 3 3 mph 1019.9mb 71f
9:00 3 5 mph 1019.9mb 71f
8:45 3 3 mph 1019.8mb 71f
8:30 5 5 mph 1019.7mb 70f
8:15 2 3 mph 1019.7mb 71f
8:00 1 2 mph 1019.5mb 70f
7:45 1 2 mph 1019.3mb 70f
7:30 2 3 mph 1019.1mb 70f
7:15 3 5 mph 1018.9mb 70f
7:00 5 6 mph 1018.9mb 69f
6:45 6 7 mph 1018.9mb 69f
6:30 7 8 mph 1018.8mb 69f
6:15 7 7 mph 1018.9mb 69f
6:00 8 9 mph 1018.8mb 69f
5:45 8 8 mph 1018.6mb 69f
5:30 8 8 mph 1018.7mb 69f
5:15 9 10 mph 1018.7mb 70f
5:00 5 5 mph 1018.9mb 70f
4:45 5 6 mph 1018.9mb 70f
4:30 6 6 mph 1018.8mb 69f
4:15 6 6 mph 1018.6mb 70f
4:00 7 7 mph 1018.6mb 70f
3:45 8 8 mph 1018.7mb 70f
3:30 7 7 mph 1018.5mb 70f
3:15 7 8 mph 1018.5mb 70f
3:00 2 2 mph 1018.7mb 71f
2:45 3 5 mph 1018.5mb 71f
2:30 3 5 mph 1018.7mb 71f
2:15 5 5 mph 1018.6mb 70f
2:00 3 3 mph 1018.7mb 70f
1:45 1 2 mph 1018.7mb 70f
1:30 2 3 mph 1018.7mb 70f
1:15 2 3 mph 1018.8mb 70f
1:00 2 2 mph 1018.9mb 70f
Seg 07/17 7:45 9 9 mph 1018.5mb 72f
7:30 9 9 mph 1018.4mb 72f
7:15 9 10 mph 1018.4mb 73f
7:00 8 9 mph 1018.5mb 73f